Time;durP1;ratioP1;P1;durP2;ratioP2;P2;SDS_P1;SDS_P2;PMS_P1;PMS_P2;Temp;Humidity;BMP_temperature;BMP_pressure;BME280_temperature;BME280_humidity;BME280_pressure;Samples;Min_cycle;Max_cycle;Signal;HPM_P1;HPM_P2
2021/11/08 00:00:28;;;;;;;29.70;20.10;;;;;;;7.14;81.36;99171.71;116763;1199;22462;-72
2021/11/08 00:03:03;;;;;;;30.70;19.00;;;;;;;7.15;81.32;99172.55;116689;1199;137634;-72
2021/11/08 00:05:36;;;;;;;29.30;19.50;;;;;;;7.16;81.54;99171.75;116753;1200;22121;-71
2021/11/08 00:08:05;;;;;;;29.10;19.40;;;;;;;7.16;81.43;99164.16;116755;1199;138580;-71
2021/11/08 00:10:36;;;;;;;30.40;20.30;;;;;;;7.16;81.26;99159.49;115475;1200;24038;-71
2021/11/08 00:13:06;;;;;;;34.90;20.70;;;;;;;7.16;81.21;99155.45;116742;1200;137839;-71
2021/11/08 00:21:11;;;;;;;30.00;19.80;;;;;;;7.16;81.33;99146.23;116751;1200;22345;-71
2021/11/08 00:23:39;;;;;;;28.10;19.40;;;;;;;7.15;81.30;99142.20;116729;1199;22344;-71
2021/11/08 00:26:08;;;;;;;34.10;20.50;;;;;;;7.16;81.34;99137.07;116673;1200;137721;-70
2021/11/08 00:28:36;;;;;;;32.60;21.40;;;;;;;7.16;80.98;99139.29;116756;1200;22356;-70
2021/11/08 00:31:04;;;;;;;31.90;20.70;;;;;;;7.14;81.09;99133.45;116635;1200;137956;-71
2021/11/08 00:33:52;;;;;;;;;;;;;;;7.10;81.00;99128.77;116834;1199;22411;-70
2021/11/08 00:36:20;;;;;;;30.00;18.70;;;;;;;7.07;81.05;99133.52;116749;1199;22801;-71
2021/11/08 00:38:50;;;;;;;32.90;19.20;;;;;;;7.04;80.84;99133.63;116636;1199;137887;-70
2021/11/08 00:41:18;;;;;;;30.80;20.70;;;;;;;7.02;80.93;99133.81;116773;1200;23217;-68
2021/11/08 00:43:46;;;;;;;30.50;20.50;;;;;;;7.01;80.96;99138.38;116660;1199;139207;-67
2021/11/08 00:46:15;;;;;;;40.50;21.10;;;;;;;7.00;80.90;99140.48;116725;1199;23081;-67
2021/11/08 00:48:44;;;;;;;32.60;20.50;;;;;;;7.00;80.95;99135.86;116687;1199;137988;-67
2021/11/08 00:51:14;;;;;;;31.80;19.80;;;;;;;6.98;81.13;99138.05;116757;1199;23391;-68
2021/11/08 00:53:43;;;;;;;34.00;20.10;;;;;;;6.98;81.28;99141.31;116641;1200;22229;-67
2021/11/08 00:56:16;;;;;;;33.20;20.50;;;;;;;6.98;81.31;99143.86;116708;1200;138549;-68
2021/11/08 00:58:45;;;;;;;32.00;19.80;;;;;;;6.98;81.29;99150.30;116748;1200;22377;-68
2021/11/08 01:01:19;;;;;;;31.30;20.60;;;;;;;7.00;81.41;99143.23;116592;1200;138237;-68
2021/11/08 01:03:47;;;;;;;34.20;20.50;;;;;;;7.00;81.49;99138.58;116783;1199;22367;-68
2021/11/08 01:06:16;;;;;;;31.20;19.70;;;;;;;7.00;81.30;99140.74;116780;1200;22253;-68
2021/11/08 01:08:44;;;;;;;33.60;20.40;;;;;;;7.00;81.35;99141.98;116588;1200;138084;-68
2021/11/08 01:11:13;;;;;;;34.30;20.90;;;;;;;6.99;81.39;99139.10;116672;1199;22286;-69
2021/11/08 01:13:42;;;;;;;36.30;22.20;;;;;;;6.98;81.48;99132.31;116734;1199;138147;-68
2021/11/08 01:16:11;;;;;;;29.10;20.70;;;;;;;6.98;81.39;99131.02;117052;1199;22369;-68
2021/11/08 01:18:39;;;;;;;30.40;20.10;;;;;;;6.98;81.48;99129.45;116965;1199;139355;-68
2021/11/08 01:21:08;;;;;;;32.00;20.50;;;;;;;6.97;81.49;99140.05;117087;1199;22341;-68
2021/11/08 01:23:37;;;;;;;30.80;20.20;;;;;;;6.98;81.56;99141.20;117039;1198;22333;-68
2021/11/08 01:26:08;;;;;;;33.60;21.20;;;;;;;6.99;81.52;99140.67;116797;1198;138641;-68
2021/11/08 01:28:39;;;;;;;32.30;21.40;;;;;;;6.99;81.43;99144.30;116747;1200;22516;-68
2021/11/08 01:31:09;;;;;;;31.50;21.20;;;;;;;6.99;81.44;99140.08;116615;1200;137803;-68
2021/11/08 01:33:39;;;;;;;33.70;20.20;;;;;;;6.99;81.48;99127.63;116795;1199;22286;-68
2021/11/08 01:38:49;;;;;;;31.50;21.00;;;;;;;6.99;81.59;99122.53;116781;1199;138162;-67
2021/11/08 01:41:19;;;;;;;32.70;20.50;;;;;;;6.99;81.38;99117.34;113282;1200;24073;-72
2021/11/08 01:43:47;;;;;;;31.00;20.50;;;;;;;6.99;81.35;99117.70;116710;1199;138554;-72
2021/11/08 01:46:16;;;;;;;32.50;20.70;;;;;;;6.99;81.37;99119.13;116737;1199;22931;-73
2021/11/08 01:48:44;;;;;;;28.50;20.00;;;;;;;6.98;81.15;99122.95;116652;1199;137835;-72
2021/11/08 01:51:14;;;;;;;32.50;21.30;;;;;;;6.98;81.30;99123.31;117040;1197;22347;-73
2021/11/08 01:53:43;;;;;;;32.50;20.40;;;;;;;6.96;81.26;99126.96;117041;1199;22245;-72
2021/11/08 01:56:12;;;;;;;30.60;19.60;;;;;;;6.96;81.16;99127.44;117052;1199;138529;-73
2021/11/08 01:58:40;;;;;;;31.40;21.50;;;;;;;6.95;81.03;99124.02;117016;1199;22345;-73
2021/11/08 02:01:08;;;;;;;30.20;19.70;;;;;;;6.94;81.03;99129.20;116683;1200;138436;-73
2021/11/08 02:03:37;;;;;;;24.90;18.20;;;;;;;6.92;81.07;99114.84;116728;1201;22320;-73
2021/11/08 02:06:06;;;;;;;31.00;20.10;;;;;;;6.90;81.05;99114.73;116663;1201;22242;-73
2021/11/08 02:08:37;;;;;;;29.10;19.40;;;;;;;6.87;80.88;99118.91;116624;1201;138934;-73
2021/11/08 02:11:06;;;;;;;30.90;19.40;;;;;;;6.85;80.73;99116.80;116688;1201;22297;-73
2021/11/08 02:13:35;;;;;;;27.20;19.10;;;;;;;6.82;80.65;99118.64;116548;1201;138648;-73
2021/11/08 02:16:04;;;;;;;29.10;18.50;;;;;;;6.80;80.74;99121.79;116708;1201;22350;-73
2021/11/08 02:18:35;;;;;;;28.20;18.80;;;;;;;6.77;80.79;99120.19;116763;1201;22267;-72
2021/11/08 02:21:07;;;;;;;28.20;18.40;;;;;;;6.74;80.73;99123.07;116590;1200;139005;-71
2021/11/08 02:23:36;;;;;;;46.70;22.60;;;;;;;6.70;80.69;99112.38;116686;1193;22322;-73
2021/11/08 02:26:08;;;;;;;27.70;18.00;;;;;;;6.70;80.76;99117.08;116698;1200;138195;-72
2021/11/08 02:28:37;;;;;;;30.10;18.80;;;;;;;6.67;80.59;99114.95;116754;1199;22862;-72
2021/11/08 02:31:05;;;;;;;29.30;18.20;;;;;;;6.63;80.53;99113.83;116570;1200;137685;-72
2021/11/08 02:33:35;;;;;;;26.90;17.30;;;;;;;6.60;80.65;99114.31;116785;1200;22315;-72
2021/11/08 02:36:03;;;;;;;28.50;19.10;;;;;;;6.57;80.71;99109.48;116795;1199;23452;-72
2021/11/08 02:38:31;;;;;;;25.70;16.90;;;;;;;6.53;80.61;99114.22;116613;1200;137838;-72
2021/11/08 02:41:00;;;;;;;30.50;19.70;;;;;;;6.49;80.51;99111.77;116737;1201;23224;-68
2021/11/08 02:43:30;;;;;;;31.40;18.50;;;;;;;6.46;80.52;99105.91;116592;1201;138594;-70
2021/11/08 02:46:15;;;;;;;26.40;18.10;;;;;;;6.42;80.44;99112.05;116712;1201;24914;-68
2021/11/08 02:48:45;;;;;;;26.90;17.80;;;;;;;6.38;80.67;99109.64;116635;1201;138706;-67
2021/11/08 02:51:24;;;;;;;27.20;17.40;;;;;;;6.37;80.59;99116.27;116674;1201;22322;-68
2021/11/08 02:53:59;;;;;;;25.10;17.40;;;;;;;6.35;80.67;99119.59;116689;1201;22342;-68
2021/11/08 02:56:27;;;;;;;27.50;17.90;;;;;;;6.33;80.60;99129.32;116686;1200;137956;-68
2021/11/08 02:59:05;;;;;;;28.60;18.90;;;;;;;6.29;80.67;99132.64;116860;1200;22243;-68
2021/11/08 03:01:33;;;;;;;27.90;19.10;;;;;;;6.24;80.61;99130.69;116573;1201;137680;-68
2021/11/08 03:04:02;;;;;;;33.10;18.40;;;;;;;6.20;80.87;99124.92;116856;1200;22250;-68
2021/11/08 03:06:32;;;;;;;29.50;20.30;;;;;;;6.16;80.84;99121.13;116763;1199;22253;-68
2021/11/08 03:09:10;;;;;;;32.90;19.10;;;;;;;6.14;81.08;99132.04;116659;1187;137618;-68
2021/11/08 03:11:38;;;;;;;28.00;18.90;;;;;;;6.12;80.98;99121.67;116743;1200;23135;-68
2021/11/08 03:14:09;;;;;;;28.60;18.60;;;;;;;6.09;81.10;99115.77;116693;1200;137708;-68
2021/11/08 03:22:10;;;;;;;26.00;16.60;;;;;;;6.00;81.17;99126.57;116642;1200;22157;-67
2021/11/08 03:27:16;;;;;;;28.10;18.00;;;;;;;5.95;81.21;99118.34;116607;1200;137515;-68
2021/11/08 03:29:44;;;;;;;30.00;17.70;;;;;;;5.93;81.37;99116.33;116752;1200;22233;-68
2021/11/08 03:32:16;;;;;;;29.60;18.40;;;;;;;5.91;81.59;99117.99;116562;1201;137705;-68
2021/11/08 03:34:53;;;;;;;31.80;18.50;;;;;;;5.88;81.49;99117.73;116687;1200;23913;-67
2021/11/08 03:37:21;;;;;;;28.80;18.60;;;;;;;5.90;81.57;99118.04;116618;1200;137858;-68
2021/11/08 03:39:49;;;;;;;30.30;18.40;;;;;;;5.90;81.82;99114.09;115586;1200;24038;-67
2021/11/08 03:42:18;;;;;;;29.70;17.50;;;;;;;5.88;81.29;99106.48;112735;1197;22483;-67
2021/11/08 03:44:46;;;;;;;28.70;18.80;;;;;;;5.87;81.50;99114.20;112744;1200;137696;-68
2021/11/08 03:47:14;;;;;;;30.20;19.00;;;;;;;5.85;81.51;99112.77;116714;1185;23213;-68
2021/11/08 03:49:43;;;;;;;27.80;17.60;;;;;;;5.83;81.84;99107.67;116636;1200;137644;-67
2021/11/08 03:52:11;;;;;;;28.90;18.00;;;;;;;5.81;81.61;99103.52;116734;1200;22370;-68
2021/11/08 03:54:39;;;;;;;26.30;17.40;;;;;;;5.79;81.58;99104.77;116748;1199;22366;-68
2021/11/08 03:57:07;;;;;;;27.70;18.60;;;;;;;5.79;81.70;99107.67;116624;1193;137933;-68
2021/11/08 03:59:36;;;;;;;31.10;18.10;;;;;;;5.78;81.94;99107.98;116745;1200;22364;-68
2021/11/08 04:02:04;;;;;;;24.00;17.00;;;;;;;5.77;81.87;99107.48;116615;1199;139796;-68
2021/11/08 04:04:32;;;;;;;26.40;17.10;;;;;;;5.75;81.84;99107.66;116725;1200;22342;-68
2021/11/08 04:07:01;;;;;;;26.30;16.00;;;;;;;5.73;81.89;99108.17;116679;1200;139343;-68
2021/11/08 04:09:32;;;;;;;28.30;18.00;;;;;;;5.73;81.88;99109.67;117064;1198;22727;-67
2021/11/08 04:12:01;;;;;;;25.00;17.00;;;;;;;5.72;81.58;99108.83;116986;1199;22355;-67
2021/11/08 04:14:33;;;;;;;31.20;17.80;;;;;;;5.69;81.95;99107.16;116739;1199;139492;-68
2021/11/08 04:18:52;;;;;;;23.00;16.70;;;;;;;5.72;81.94;99105.10;111267;1207;545727;-66
2021/11/08 04:21:21;;;;;;;29.40;17.90;;;;;;;5.70;81.89;99108.73;112243;1199;22558;-66
2021/11/08 04:23:49;;;;;;;26.10;16.40;;;;;;;5.69;82.11;99106.77;116340;1204;22960;-67
2021/11/08 04:26:23;;;;;;;27.60;17.00;;;;;;;5.70;82.13;99107.11;116250;1204;138689;-67
2021/11/08 04:28:56;;;;;;;27.10;17.10;;;;;;;5.69;81.79;99112.49;116328;1205;22351;-67
2021/11/08 04:31:25;;;;;;;30.70;17.90;;;;;;;5.67;81.82;99110.19;116228;1204;138499;-68
2021/11/08 04:34:02;;;;;;;24.70;17.60;;;;;;;5.65;81.85;99107.65;116411;1204;23041;-67
2021/11/08 04:41:58;;;;;;;25.50;16.60;;;;;;;5.58;81.80;99131.19;112266;1196;24153;-67
2021/11/08 04:44:55;;;;;;;31.20;18.20;;;;;;;5.56;81.78;99142.16;116289;1204;140344;-68
2021/11/08 04:47:52;;;;;;;24.80;17.10;;;;;;;5.54;82.14;99139.83;116370;1204;22321;-68
2021/11/08 04:50:33;;;;;;;32.40;17.50;;;;;;;5.50;82.16;99143.79;116388;1203;137311;-67
2021/11/08 05:23:57;;;;;;;24.30;15.80;;;;;;;5.41;82.53;99150.44;116775;1200;23021;-66
2021/11/08 05:31:49;;;;;;;23.40;16.80;;;;;;;5.38;82.65;99172.44;116797;1200;139409;-70
2021/11/08 05:34:18;;;;;;;28.10;16.00;;;;;;;5.37;82.68;99181.76;116709;1201;22314;-71
2021/11/08 05:36:46;;;;;;;23.00;15.60;;;;;;;5.38;82.76;99186.28;116663;1200;138085;-67
2021/11/08 05:39:15;;;;;;;24.00;15.70;;;;;;;5.39;82.77;99179.11;116748;1200;22268;-69
2021/11/08 05:41:45;;;;;;;26.90;16.10;;;;;;;5.40;82.58;99176.44;116760;1200;23043;-65
2021/11/08 05:44:13;;;;;;;25.30;17.10;;;;;;;5.41;82.90;99177.50;116701;1200;137072;-65
2021/11/08 05:46:41;;;;;;;28.20;17.10;;;;;;;5.43;83.03;99177.80;116713;1201;22252;-65
2021/11/08 05:49:09;;;;;;;23.10;16.90;;;;;;;5.44;83.01;99188.52;116613;1200;137674;-67
2021/11/08 05:51:37;;;;;;;24.30;16.70;;;;;;;5.46;82.85;99191.56;116779;1200;22315;-65
2021/11/08 05:54:05;;;;;;;23.90;16.30;;;;;;;5.48;82.75;99189.40;116763;1197;22364;-65
2021/11/08 05:56:48;;;;;;;22.80;15.70;;;;;;;5.49;82.68;99194.77;116740;1199;137241;-65
2021/11/08 06:47:57;;;;;;;26.00;16.00;;;;;;;5.52;82.67;99210.07;116840;1200;138966;-65
2021/11/08 06:49:38;;;;;;;23.20;14.40;;;;;;;6.23;81.91;99229.60;115981;1206;137517;-71
2021/11/08 06:52:07;;;;;;;25.90;15.80;;;;;;;6.28;81.58;99230.64;116098;1206;22903;-73
2021/11/08 06:54:36;;;;;;;25.10;16.90;;;;;;;6.33;81.73;99233.21;116108;1206;22351;-70
2021/11/08 06:57:12;;;;;;;21.10;14.50;;;;;;;6.39;81.81;99232.50;115865;1206;137502;-71
2021/11/08 06:59:41;;;;;;;21.30;14.60;;;;;;;6.45;81.43;99229.40;116013;1206;23122;-70
2021/11/08 07:02:11;;;;;;;20.90;14.60;;;;;;;6.50;81.19;99231.55;115932;1206;137551;-68
2021/11/08 07:04:39;;;;;;;25.20;15.00;;;;;;;6.53;81.36;99233.52;116280;1203;22338;-69
2021/11/08 07:07:09;;;;;;;23.20;14.80;;;;;;;6.56;80.92;99229.20;116137;1203;137769;-69
2021/11/08 07:09:38;;;;;;;22.90;14.70;;;;;;;6.60;80.88;99228.84;116440;1196;22258;-69
2021/11/08 07:12:07;;;;;;;34.80;17.90;;;;;;;6.64;80.96;99234.63;116466;1199;23371;-70
2021/11/08 07:14:35;;;;;;;26.20;15.80;;;;;;;6.69;80.89;99232.11;116804;1200;138041;-70
2021/11/08 07:17:04;;;;;;;27.60;16.70;;;;;;;6.74;80.68;99232.55;116858;1200;23500;-70
2021/11/08 07:19:32;;;;;;;24.10;15.70;;;;;;;6.78;80.35;99230.77;116868;1194;139124;-70
2021/11/08 07:22:01;;;;;;;27.40;16.90;;;;;;;6.82;80.43;99231.39;116813;1200;23061;-70
2021/11/08 07:24:29;;;;;;;33.00;19.60;;;;;;;6.84;80.19;99239.34;116917;1200;23163;-70
2021/11/08 07:26:57;;;;;;;30.50;17.00;;;;;;;6.85;80.08;99241.60;116854;1200;137588;-70
2021/11/08 07:29:26;;;;;;;29.80;16.40;;;;;;;6.87;79.89;99244.66;116881;1200;22431;-70
2021/11/08 07:31:55;;;;;;;30.60;17.00;;;;;;;6.88;79.94;99252.77;116855;1200;137440;-69
2021/11/08 07:34:23;;;;;;;35.90;16.90;;;;;;;6.90;79.93;99251.02;116903;1200;23248;-70
2021/11/08 07:36:52;;;;;;;25.90;15.50;;;;;;;6.92;79.75;99253.41;116959;1200;22385;-70
2021/11/08 07:39:20;;;;;;;23.40;15.40;;;;;;;6.96;79.64;99261.66;116811;1200;137769;-69
2021/11/08 07:41:49;;;;;;;25.00;16.30;;;;;;;6.97;79.63;99262.30;116932;1200;22314;-70
2021/11/08 07:44:17;;;;;;;26.50;16.40;;;;;;;6.98;79.71;99266.16;116801;1200;137687;-70
2021/11/08 07:46:45;;;;;;;33.20;19.10;;;;;;;7.00;79.43;99269.83;116934;1200;22340;-70
2021/11/08 07:49:13;;;;;;;30.10;17.60;;;;;;;7.00;79.35;99271.36;114459;1193;137453;-69
2021/11/08 07:51:41;;;;;;;30.30;18.50;;;;;;;7.03;79.37;99279.11;112960;1193;22513;-69
2021/11/08 07:54:09;;;;;;;36.00;17.80;;;;;;;7.04;79.40;99282.71;112803;1200;22582;-69
2021/11/08 07:56:37;;;;;;;31.50;18.90;;;;;;;7.07;79.51;99283.80;112758;1200;137529;-69
2021/11/08 07:59:05;;;;;;;27.30;17.60;;;;;;;7.13;79.72;99284.38;112883;1200;22642;-70
2021/11/08 08:01:33;;;;;;;28.90;17.60;;;;;;;7.20;80.04;99284.04;112772;1200;137758;-70
2021/11/08 08:04:01;;;;;;;29.00;19.10;;;;;;;7.28;79.70;99281.48;116940;1200;23943;-70
2021/11/08 08:06:29;;;;;;;31.60;17.50;;;;;;;7.34;79.57;99281.66;116823;1200;22343;-70
2021/11/08 08:08:57;;;;;;;25.50;16.00;;;;;;;7.40;79.17;99282.30;116850;1200;137933;-70
2021/11/08 08:11:26;;;;;;;30.40;17.40;;;;;;;7.47;79.13;99282.60;116954;1200;22801;-70
2021/11/08 08:13:54;;;;;;;34.30;19.00;;;;;;;7.52;79.15;99286.05;116772;1200;137435;-70
2021/11/08 08:16:22;;;;;;;32.60;18.20;;;;;;;7.58;78.89;99295.97;116978;1200;22366;-70
2021/11/08 08:18:50;;;;;;;33.50;18.20;;;;;;;7.64;78.58;99300.26;116885;1200;23351;-70
2021/11/08 08:21:18;;;;;;;26.80;15.80;;;;;;;7.67;78.17;99298.08;116818;1200;137755;-70
2021/11/08 08:23:54;;;;;;;27.30;16.10;;;;;;;7.72;78.00;99298.23;116941;1200;22419;-70
2021/11/08 08:26:24;;;;;;;31.30;15.40;;;;;;;7.75;78.02;99293.35;116821;1200;137875;-70
2021/11/08 08:28:52;;;;;;;32.10;17.90;;;;;;;7.81;77.96;99299.73;117021;1200;22387;-70
2021/11/08 08:31:21;;;;;;;27.30;15.80;;;;;;;7.86;77.60;99298.30;116856;1200;139237;-70
2021/11/08 08:33:50;;;;;;;27.10;16.70;;;;;;;7.91;77.46;99293.56;116965;1200;23673;-70
2021/11/08 08:36:18;;;;;;;30.30;16.50;;;;;;;7.96;77.31;99292.42;117021;1200;22358;-70
2021/11/08 08:38:47;;;;;;;29.80;16.60;;;;;;;8.01;77.00;99287.38;116816;1200;138141;-70
2021/11/08 08:41:16;;;;;;;29.20;16.40;;;;;;;8.07;76.93;99289.63;113265;1200;22574;-69
2021/11/08 08:43:45;;;;;;;30.30;16.30;;;;;;;8.13;76.76;99292.11;116585;1200;138130;-70
2021/11/08 08:46:15;;;;;;;43.10;20.70;;;;;;;8.20;76.58;99297.23;116771;1200;22328;-70
2021/11/08 08:48:43;;;;;;;33.50;17.20;;;;;;;8.24;76.48;99298.02;116746;1200;23046;-70
2021/11/08 08:51:11;;;;;;;22.80;13.30;;;;;;;8.28;76.01;99295.28;116626;1200;137884;-70
2021/11/08 08:53:40;;;;;;;21.20;14.30;;;;;;;8.30;75.68;99302.41;116754;1201;22428;-70
2021/11/08 08:56:23;;;;;;;25.70;14.90;;;;;;;8.32;75.53;99306.33;116601;1201;137811;-70
2021/11/08 08:58:52;;;;;;;19.20;11.70;;;;;;;8.33;75.37;99308.09;116699;1200;22386;-72
2021/11/08 09:01:20;;;;;;;18.60;13.80;;;;;;;8.35;75.26;99307.14;116573;1200;138581;-72
2021/11/08 09:03:49;;;;;;;20.40;12.00;;;;;;;8.37;75.17;99301.25;116722;1200;22288;-72
2021/11/08 09:06:17;;;;;;;23.90;13.00;;;;;;;8.40;75.06;99296.45;116729;1201;22436;-70
2021/11/08 09:08:45;;;;;;;20.90;13.00;;;;;;;8.44;75.20;99300.86;116600;1200;137915;-71
2021/11/08 09:11:14;;;;;;;20.20;13.50;;;;;;;8.48;75.22;99309.40;116650;1200;22183;-70
2021/11/08 09:13:43;;;;;;;18.50;12.70;;;;;;;8.52;74.79;99316.99;116548;1200;138095;-70
2021/11/08 09:16:12;;;;;;;24.90;12.80;;;;;;;8.55;74.68;99317.31;116737;1200;22127;-71
2021/11/08 09:18:45;;;;;;;20.20;12.50;;;;;;;8.59;74.56;99314.12;116700;1200;23035;-70
2021/11/08 09:21:13;;;;;;;20.30;13.80;;;;;;;8.62;74.41;99312.16;116626;1200;138048;-70
2021/11/08 09:23:42;;;;;;;18.90;13.50;;;;;;;8.66;74.25;99301.60;116736;1200;23018;-71
2021/11/08 09:26:10;;;;;;;21.10;13.50;;;;;;;8.69;74.03;99300.72;116622;1200;138161;-71
2021/11/08 09:28:38;;;;;;;18.20;12.70;;;;;;;8.74;74.10;99309.33;116723;1200;23250;-70
2021/11/08 09:31:06;;;;;;;20.70;13.50;;;;;;;8.78;73.66;99303.36;116614;1200;138388;-69
2021/11/08 09:33:34;;;;;;;19.20;12.20;;;;;;;8.82;73.55;99301.65;116740;1200;23052;-70
2021/11/08 09:36:05;;;;;;;23.60;14.70;;;;;;;8.83;73.18;99299.77;116700;1200;23480;-71
2021/11/08 09:38:36;;;;;;;24.70;14.90;;;;;;;8.84;73.14;99292.89;116558;1200;137990;-71
2021/11/08 09:41:08;;;;;;;24.20;14.00;;;;;;;8.86;72.91;99282.53;113506;1200;22519;-69
2021/11/08 09:43:36;;;;;;;18.40;12.30;;;;;;;8.88;72.55;99285.27;116669;1199;137976;-69
2021/11/08 09:46:04;;;;;;;36.70;15.80;;;;;;;8.90;72.07;99287.59;116757;1200;22341;-70
2021/11/08 09:48:36;;;;;;;23.40;12.30;;;;;;;8.91;71.69;99291.23;116711;1200;22233;-70
2021/11/08 09:51:04;;;;;;;20.70;11.10;;;;;;;8.92;71.30;99298.16;116596;1201;138042;-70
2021/11/08 09:53:33;;;;;;;19.40;9.90;;;;;;;8.94;71.03;99303.18;116739;1200;22232;-71
2021/11/08 09:56:02;;;;;;;27.30;13.30;;;;;;;8.95;70.83;99303.02;116647;1200;137778;-70
2021/11/08 09:58:46;;;;;;;22.50;12.10;;;;;;;8.95;70.74;99303.50;116669;1200;22432;-70
2021/11/08 10:01:23;;;;;;;15.60;8.90;;;;;;;8.99;70.74;99308.00;116619;1201;138369;-70
2021/11/08 10:03:52;;;;;;;18.10;9.70;;;;;;;9.01;70.19;99314.41;116723;1200;23158;-69
2021/11/08 10:06:20;;;;;;;16.30;8.20;;;;;;;9.03;69.83;99320.19;116725;1201;22783;-69
2021/11/08 10:08:53;;;;;;;12.80;8.10;;;;;;;9.02;69.58;99321.70;116659;1200;138097;-70
2021/11/08 10:11:22;;;;;;;13.20;7.00;;;;;;;9.01;69.16;99324.19;116736;1193;22305;-69
2021/11/08 10:13:51;;;;;;;11.80;8.10;;;;;;;9.00;68.70;99329.61;116549;1200;138214;-71
2021/11/08 10:16:39;;;;;;;11.90;7.50;;;;;;;9.00;68.50;99330.75;116708;1200;22271;-69
2021/11/08 10:19:12;;;;;;;12.60;6.70;;;;;;;8.99;68.61;99326.55;114515;1193;139830;-69
2021/11/08 10:21:42;;;;;;;8.90;6.20;;;;;;;9.02;68.02;99328.48;112695;1200;24181;-69
2021/11/08 10:24:15;;;;;;;14.10;6.30;;;;;;;9.03;67.80;99327.15;116832;1200;23589;-69
2021/11/08 10:26:43;;;;;;;9.80;5.70;;;;;;;9.05;67.65;99328.91;116669;1193;138295;-69
2021/11/08 10:29:18;;;;;;;11.00;6.20;;;;;;;9.07;66.96;99331.11;116822;1200;23398;-69
2021/11/08 10:32:07;;;;;;;13.10;6.20;;;;;;;9.07;66.54;99332.25;116717;1200;138056;-69
2021/11/08 10:34:46;;;;;;;11.70;5.90;;;;;;;9.11;66.07;99335.39;116631;1201;23370;-69
2021/11/08 10:37:22;;;;;;;10.00;5.70;;;;;;;9.14;65.96;99334.95;116623;1200;137997;-69
2021/11/08 10:39:51;;;;;;;11.10;6.00;;;;;;;9.17;65.63;99337.81;116858;1200;22251;-70
2021/11/08 10:42:24;;;;;;;10.20;5.20;;;;;;;9.21;65.39;99339.23;116916;1200;22996;-69
2021/11/08 10:44:53;;;;;;;10.30;4.90;;;;;;;9.23;63.98;99334.62;116618;1200;138195;-67
2021/11/08 10:47:21;;;;;;;10.70;4.70;;;;;;;9.22;63.85;99330.11;116722;1196;22320;-70
2021/11/08 10:49:53;;;;;;;12.70;5.10;;;;;;;9.23;63.56;99330.55;116666;1200;138220;-69
2021/11/08 10:52:27;;;;;;;9.50;4.80;;;;;;;9.21;63.08;99324.92;116763;1201;23186;-69
2021/11/08 10:54:57;;;;;;;12.40;5.10;;;;;;;9.19;63.02;99313.48;116708;1200;22321;-68
2021/11/08 10:57:26;;;;;;;8.20;4.70;;;;;;;9.17;62.97;99310.59;116568;1193;137713;-68
2021/11/08 10:59:55;;;;;;;12.10;5.80;;;;;;;9.18;63.23;99313.21;116776;1201;22831;-68
2021/11/08 11:02:29;;;;;;;10.20;5.30;;;;;;;9.21;63.26;99308.62;116609;1201;139422;-68
2021/11/08 11:05:03;;;;;;;8.30;4.70;;;;;;;9.22;62.58;99306.19;116851;1200;22382;-68
2021/11/08 11:07:35;;;;;;;8.20;4.20;;;;;;;9.24;62.15;99305.42;116743;1200;137613;-68
2021/11/08 11:10:15;;;;;;;9.70;5.20;;;;;;;9.24;62.53;99304.39;116801;1200;22307;-68
2021/11/08 11:12:47;;;;;;;6.90;4.20;;;;;;;9.26;62.17;99315.40;116773;1200;22245;-68
2021/11/08 11:15:31;;;;;;;10.50;4.20;;;;;;;9.23;61.69;99314.55;116655;1200;138703;-69
2021/11/08 11:18:01;;;;;;;8.50;4.10;;;;;;;9.19;61.73;99319.70;116637;1201;22345;-68
2021/11/08 11:20:33;;;;;;;7.30;4.20;;;;;;;9.18;62.27;99311.36;116565;1201;137685;-68
2021/11/08 11:23:08;;;;;;;6.80;3.60;;;;;;;9.18;61.81;99312.33;116629;1197;22811;-68
2021/11/08 11:25:38;;;;;;;9.20;4.50;;;;;;;9.16;61.26;99314.60;116555;1200;137915;-68
2021/11/08 11:28:07;;;;;;;10.90;4.80;;;;;;;9.14;61.52;99315.27;116738;1200;22317;-69
2021/11/08 11:30:41;;;;;;;8.10;5.30;;;;;;;9.11;61.62;99321.11;116689;1200;22368;-68
2021/11/08 11:33:17;;;;;;;8.80;5.00;;;;;;;9.13;61.87;99326.98;116582;1201;137664;-68
2021/11/08 11:36:04;;;;;;;14.60;5.90;;;;;;;9.13;62.12;99322.16;116710;1201;22505;-68
2021/11/08 11:38:40;;;;;;;8.10;4.10;;;;;;;9.14;62.03;99324.40;116587;1200;138131;-68
2021/11/08 11:41:11;;;;;;;9.50;4.10;;;;;;;9.13;61.74;99318.79;116722;1201;22279;-68
2021/11/08 11:43:41;;;;;;;14.70;6.50;;;;;;;9.13;61.77;99316.73;116618;1200;137823;-69
2021/11/08 11:46:17;;;;;;;11.20;6.50;;;;;;;9.14;61.87;99317.50;116718;1200;22262;-70
2021/11/08 11:48:46;;;;;;;11.10;6.30;;;;;;;9.15;61.91;99304.25;116700;1201;22314;-68
2021/11/08 11:51:19;;;;;;;10.50;5.40;;;;;;;9.16;62.14;99306.06;116630;1200;137728;-68
2021/11/08 11:53:48;;;;;;;10.30;5.20;;;;;;;9.17;62.22;99309.72;116645;1200;23585;-68
2021/11/08 11:56:16;;;;;;;11.30;5.70;;;;;;;9.18;61.90;99316.14;116613;1201;137744;-69
2021/11/08 11:58:45;;;;;;;12.90;5.70;;;;;;;9.20;62.13;99318.39;116660;1200;22269;-69
2021/11/08 12:01:15;;;;;;;10.40;5.20;;;;;;;9.22;62.10;99314.45;116603;1201;138364;-68
2021/11/08 12:03:46;;;;;;;12.00;4.80;;;;;;;9.24;61.74;99311.41;116808;1200;22306;-67
2021/11/08 12:06:16;;;;;;;10.20;4.90;;;;;;;9.25;61.85;99311.53;116760;1200;22308;-68
2021/11/08 12:08:46;;;;;;;7.50;5.10;;;;;;;9.28;61.50;99320.54;116688;1201;138649;-68
2021/11/08 12:11:48;;;;;;;10.60;4.20;;;;;;;9.30;61.14;99336.92;116781;1200;22402;-68
2021/11/08 12:14:19;;;;;;;8.80;4.50;;;;;;;9.30;60.92;99333.61;116576;1201;138286;-69
2021/11/08 12:17:10;;;;;;;11.50;5.20;;;;;;;9.30;60.89;99332.20;116722;1200;22363;-68
2021/11/08 12:19:39;;;;;;;13.10;4.90;;;;;;;9.30;61.18;99336.02;116595;1201;138163;-68
2021/11/08 12:22:22;;;;;;;12.70;4.80;;;;;;;9.31;61.47;99343.73;116737;1201;23545;-68
2021/11/08 12:25:01;;;;;;;7.10;4.00;;;;;;;9.31;61.09;99344.99;116689;1200;23124;-68
2021/11/08 12:27:37;;;;;;;10.40;4.00;;;;;;;9.31;60.99;99341.73;116621;1200;139060;-69
2021/11/08 12:30:21;;;;;;;10.60;5.30;;;;;;;9.30;60.90;99338.52;116731;1201;22366;-69
2021/11/08 12:32:51;;;;;;;7.70;4.40;;;;;;;9.32;60.78;99349.23;116610;1201;138301;-69
2021/11/08 12:35:24;;;;;;;14.70;5.20;;;;;;;9.32;60.74;99352.50;116756;1201;22303;-68
2021/11/08 12:37:52;;;;;;;9.90;4.80;;;;;;;9.31;60.69;99363.11;116622;1200;137978;-69
2021/11/08 12:40:22;;;;;;;9.80;4.60;;;;;;;9.31;60.36;99359.62;114643;1193;22474;-69
2021/11/08 12:42:52;;;;;;;9.50;4.20;;;;;;;9.31;60.52;99360.17;112741;1193;25123;-69
2021/11/08 12:45:26;;;;;;;11.10;4.70;;;;;;;9.32;60.30;99363.54;116585;1200;137946;-69
2021/11/08 12:48:00;;;;;;;8.30;4.80;;;;;;;9.31;60.17;99359.30;116674;1201;22387;-69
2021/11/08 12:50:49;;;;;;;11.10;4.40;;;;;;;9.29;60.04;99353.63;116599;1200;136875;-70
2021/11/08 12:53:31;;;;;;;13.70;5.60;;;;;;;9.30;60.20;99360.53;116745;1201;22215;-69
2021/11/08 12:56:08;;;;;;;10.40;5.30;;;;;;;9.29;60.21;99365.41;116649;1201;137958;-69
2021/11/08 12:58:43;;;;;;;12.30;5.30;;;;;;;9.29;60.29;99363.78;116772;1197;22330;-72
2021/11/08 13:01:15;;;;;;;12.20;4.60;;;;;;;9.29;60.24;99364.38;116617;1200;137128;-68
2021/11/08 13:03:45;;;;;;;8.00;4.10;;;;;;;9.29;60.12;99365.52;117126;1199;22364;-69
2021/11/08 13:06:26;;;;;;;9.20;4.30;;;;;;;9.28;60.00;99369.15;117159;1199;23334;-69
2021/11/08 13:09:14;;;;;;;6.10;4.00;;;;;;;9.26;59.62;99366.08;117023;1193;137110;-68
2021/11/08 13:11:50;;;;;;;15.60;4.20;;;;;;;9.26;59.54;99374.88;117116;1199;22308;-69
2021/11/08 13:14:34;;;;;;;9.20;3.40;;;;;;;9.26;59.65;99371.45;117020;1193;137154;-68
2021/11/08 13:17:10;;;;;;;18.20;6.10;;;;;;;9.26;59.54;99372.32;117102;1199;22324;-69
2021/11/08 13:19:56;;;;;;;11.70;4.80;;;;;;;9.25;59.18;99375.67;117038;1198;137160;-69
2021/11/08 13:22:46;;;;;;;9.50;4.10;;;;;;;9.25;59.22;99388.45;116858;1199;22149;-68